Terminal Aerodrome Forecast
Issued by NWS Wilmington, OH

Current Version | Previous Version | Graphics & Text | Print | Product List | Glossary On
Versions: 1 2 3 4 5 6 7 8 9 10 11 12 13 14 15 16 17 18 19 20
000
FTUS41 KILN 162300
TAFILN
TAF
KILN 162320Z 1700/1724 18006KT P6SM VCTS OVC035CB
      TEMPO 1700/1702 5SM -SHRA OVC025
     FM170200 19005KT 6SM BR VCSH OVC018
      TEMPO 1702/1705 5SM -SHRA OVC012
     FM170600 24006KT 2SM BR OVC007
     FM171300 33006KT P6SM BKN025
     FM171500 35006KT P6SM SKC=

USA.gov is the U.S. government's official web portal to all federal, state and local government web resources and services.